Аэропорт: Кызылорда. Кызылорда

ICAO: UAOO

METAR:
2019/01/21 23:00
UAOO 212300Z 31002MPS 290V360 9999 BKN033 M05/M05 Q1028 NOSIG RMK QFE759/1012
METAR:
2018/04/18 00:06
TAF TAF UAOO 172300Z 1700/1809 27006MPS 9999 SCT033 BKN100